Time;durP1;ratioP1;P1;durP2;ratioP2;P2;SDS_P1;SDS_P2;PMS_P1;PMS_P2;Temp;Humidity;BMP_temperature;BMP_pressure;BME280_temperature;BME280_humidity;BME280_pressure;Samples;Min_cycle;Max_cycle;Signal;HPM_P1;HPM_P2
2024/01/24 00:01:59;;;;;;;6.05;1.20;;;10.00;99.90;;;10.14;97.57;101250.75;4851347;28;24881;-63
2024/01/24 00:04:22;;;;;;;1.50;0.90;;;10.00;99.90;;;10.24;97.62;101228.41;4850541;28;24444;-63
2024/01/24 00:06:44;;;;;;;1.60;0.90;;;10.10;99.90;;;10.31;98.58;101241.91;4838126;28;24855;-64
2024/01/24 00:09:06;;;;;;;3.50;1.30;;;10.20;99.90;;;10.37;98.14;101231.91;4848861;28;24482;-64
2024/01/24 00:11:29;;;;;;;1.63;1.10;;;10.30;99.90;;;10.41;98.07;101233.44;4852198;28;25207;-64
2024/01/24 00:13:51;;;;;;;3.27;1.10;;;10.30;99.90;;;10.45;98.34;101237.53;4848268;28;24447;-64
2024/01/24 00:16:13;;;;;;;2.90;1.35;;;10.30;99.90;;;10.51;97.81;101237.13;4851677;28;24498;-63
2024/01/24 00:18:35;;;;;;;2.97;1.08;;;10.30;99.90;;;10.54;98.33;101234.31;4846103;28;24447;-63
2024/01/24 00:20:57;;;;;;;1.38;1.20;;;10.40;99.90;;;10.55;98.02;101233.41;4835592;28;24429;-66
2024/01/24 00:23:19;;;;;;;2.10;1.00;;;10.40;99.90;;;10.61;96.97;101238.22;4837780;28;24439;-64
2024/01/24 00:25:41;;;;;;;4.70;1.10;;;10.50;99.90;;;10.58;97.78;101241.06;4845695;28;24516;-64
2024/01/24 00:28:04;;;;;;;1.30;0.95;;;10.50;99.90;;;10.63;97.89;101241.59;4850476;28;24802;-64
2024/01/24 00:30:26;;;;;;;4.68;1.00;;;10.50;99.90;;;10.68;97.52;101241.31;4828969;28;24448;-64
2024/01/24 00:32:48;;;;;;;3.47;1.00;;;10.50;99.90;;;10.70;97.38;101240.28;4845923;28;24443;-63
2024/01/24 00:35:10;;;;;;;1.73;0.70;;;10.60;99.90;;;10.65;97.49;101208.41;4832794;28;24428;-64
2024/01/24 00:37:31;;;;;;;2.20;1.00;;;10.60;99.90;;;10.73;96.75;101206.13;4855489;28;24452;-64
2024/01/24 00:39:53;;;;;;;2.00;1.08;;;10.60;99.90;;;10.77;96.54;101218.09;4850802;28;24435;-65
2024/01/24 00:42:15;;;;;;;1.48;0.80;;;10.60;99.90;;;10.84;97.19;101224.56;4839756;28;24451;-65
2024/01/24 00:44:39;;;;;;;3.20;1.10;;;10.70;99.90;;;10.85;96.76;101215.81;4844839;28;24986;-65
2024/01/24 00:47:01;;;;;;;2.53;1.00;;;10.70;99.90;;;10.90;96.04;101215.53;4831093;28;24428;-64
2024/01/24 00:49:24;;;;;;;2.55;0.90;;;10.70;99.90;;;10.91;96.32;101215.41;4842545;28;24506;-64
2024/01/24 00:51:46;;;;;;;4.40;1.17;;;10.80;99.90;;;10.92;96.74;101201.41;4831832;28;24460;-64
2024/01/24 00:54:08;;;;;;;1.60;1.10;;;10.80;99.90;;;10.98;95.90;101209.78;4839622;28;24576;-65
2024/01/24 00:56:30;;;;;;;3.15;1.10;;;10.80;99.90;;;10.99;96.15;101195.81;4844716;28;24463;-65
2024/01/24 00:58:52;;;;;;;2.22;1.00;;;10.90;99.90;;;11.04;95.66;101199.78;4849541;28;24506;-64
2024/01/24 01:01:14;;;;;;;1.55;1.10;;;10.90;99.90;;;11.05;95.43;101191.03;4847955;28;24545;-65
2024/01/24 01:03:36;;;;;;;1.50;1.10;;;10.90;99.90;;;11.05;96.30;101205.88;4847232;28;24523;-64
2024/01/24 01:05:59;;;;;;;2.00;0.90;;;10.90;99.90;;;11.04;96.05;101202.41;4856766;28;24969;-63
2024/01/24 01:08:20;;;;;;;2.50;0.80;;;10.90;99.90;;;11.03;96.09;101219.00;4853966;28;24984;-64
2024/01/24 01:10:42;;;;;;;1.60;0.90;;;10.90;99.90;;;11.07;96.59;101212.66;4858210;28;24464;-64
2024/01/24 01:13:04;;;;;;;3.75;1.10;;;10.90;99.90;;;11.13;96.40;101227.94;4853325;28;24533;-68
2024/01/24 01:15:26;;;;;;;1.50;1.00;;;11.00;99.90;;;11.16;95.87;101203.41;4843445;28;20819;-65
2024/01/24 01:17:48;;;;;;;3.33;0.90;;;11.00;99.90;;;11.14;95.71;101200.88;4849859;28;24825;-65
2024/01/24 01:20:11;;;;;;;1.00;0.90;;;11.00;99.90;;;11.18;95.81;101198.91;4846090;28;24440;-62
2024/01/24 01:22:33;;;;;;;1.52;0.90;;;11.00;99.90;;;11.18;96.02;101196.31;4848611;28;24478;-63
2024/01/24 01:24:55;;;;;;;4.18;1.08;;;11.00;99.90;;;11.16;96.39;101203.41;4854115;28;24451;-65
2024/01/24 01:27:22;;;;;;;2.15;0.98;;;11.10;99.90;;;11.19;95.63;101197.97;4839912;28;24845;-64
2024/01/24 01:29:44;;;;;;;3.30;0.90;;;11.00;99.90;;;11.22;95.58;101192.53;4842499;28;24579;-64
2024/01/24 01:32:07;;;;;;;2.17;1.00;;;11.10;99.90;;;11.24;95.39;101191.50;4834850;28;25056;-68
2024/01/24 01:34:29;;;;;;;2.22;1.30;;;11.10;99.90;;;11.22;95.28;101193.34;4845168;28;24994;-63
2024/01/24 01:36:51;;;;;;;1.20;0.80;;;11.10;99.90;;;11.26;94.89;101194.84;4848054;28;24452;-63
2024/01/24 01:39:13;;;;;;;3.03;1.10;;;11.10;99.90;;;11.27;95.16;101172.16;4853053;28;24428;-63
2024/01/24 01:41:36;;;;;;;1.50;1.00;;;11.10;99.90;;;11.29;95.44;101170.28;4854381;28;25413;-62
2024/01/24 01:43:58;;;;;;;2.70;0.90;;;11.10;99.90;;;11.30;95.22;101158.91;4852127;28;24862;-63
2024/01/24 01:46:25;;;;;;;2.00;1.20;;;11.10;99.90;;;11.33;95.12;101161.34;4843208;28;24822;-63
2024/01/24 01:48:49;;;;;;;1.98;1.10;;;11.20;99.90;;;11.28;95.45;101156.41;4848872;28;24436;-63
2024/01/24 01:51:12;;;;;;;2.50;0.90;;;11.20;99.90;;;11.27;95.09;101149.50;4838555;28;24451;-62
2024/01/24 01:53:38;;;;;;;1.60;1.00;;;11.10;99.90;;;11.31;95.06;101134.44;4827112;28;24857;-63
2024/01/24 01:56:01;;;;;;;4.57;1.20;;;11.20;99.90;;;11.34;95.33;101140.31;4850207;28;24439;-63
2024/01/24 01:58:23;;;;;;;1.60;0.93;;;11.20;99.90;;;11.38;95.05;101127.88;4834420;28;25166;-63
2024/01/24 02:00:49;;;;;;;1.80;1.00;;;11.20;99.90;;;11.37;94.26;101147.13;4845526;28;24446;-63
2024/01/24 02:03:12;;;;;;;1.70;1.08;;;11.20;99.90;;;11.40;95.10;101137.28;4835221;28;24536;-63
2024/01/24 02:05:34;;;;;;;2.75;0.90;;;11.20;99.90;;;11.43;94.26;101131.03;4853229;28;24436;-62
2024/01/24 02:08:00;;;;;;;3.83;1.20;;;11.20;99.90;;;11.56;93.49;101121.41;4834801;28;24524;-63
2024/01/24 02:10:22;;;;;;;1.60;1.00;;;11.40;99.90;;;11.55;94.15;101136.25;4829369;28;24440;-63
2024/01/24 02:12:44;;;;;;;1.20;0.90;;;11.40;99.90;;;11.58;93.64;101140.44;4850735;28;25056;-63
2024/01/24 02:15:08;;;;;;;1.30;1.10;;;11.40;99.90;;;11.57;93.68;101146.59;4845175;28;24452;-62
2024/01/24 02:17:30;;;;;;;1.50;1.10;;;11.40;99.90;;;11.51;94.07;101136.56;4841432;28;24618;-63
2024/01/24 02:19:51;;;;;;;3.50;1.20;;;11.40;99.90;;;11.54;93.45;101128.53;4848511;28;24501;-63
2024/01/24 02:22:14;;;;;;;1.40;1.08;;;11.40;99.90;;;11.55;93.82;101122.34;4833338;28;24442;-63
2024/01/24 02:24:36;;;;;;;2.33;0.90;;;11.40;99.90;;;11.58;94.01;101117.72;4853336;28;20791;-63
2024/01/24 02:26:58;;;;;;;2.10;1.10;;;11.40;99.90;;;11.61;93.67;101121.91;4841769;28;24535;-65
2024/01/24 02:29:20;;;;;;;1.50;0.80;;;11.50;99.90;;;11.58;93.83;101090.78;4836089;28;24533;-64
2024/01/24 02:31:42;;;;;;;1.92;1.00;;;11.50;99.90;;;11.59;93.98;101095.91;4828907;28;24475;-63
2024/01/24 02:34:04;;;;;;;1.70;0.88;;;11.50;99.90;;;11.59;94.30;101092.44;4852238;28;24523;-64
2024/01/24 02:36:26;;;;;;;1.02;1.00;;;11.50;99.90;;;11.60;94.41;101115.03;4848323;28;24460;-63
2024/01/24 02:38:48;;;;;;;1.17;0.70;;;11.50;99.90;;;11.61;94.34;101112.31;4853823;28;24992;-64
2024/01/24 02:41:10;;;;;;;2.15;0.85;;;11.50;99.90;;;11.64;94.10;101106.03;4833815;28;24444;-64
2024/01/24 02:43:32;;;;;;;1.43;0.90;;;11.50;99.90;;;11.65;93.48;101133.84;4850973;28;24456;-65
2024/01/24 02:45:55;;;;;;;0.90;0.80;;;11.50;99.90;;;11.62;94.03;101116.63;4847948;28;24440;-65
2024/01/24 02:48:17;;;;;;;3.00;0.90;;;11.50;99.90;;;11.63;94.69;101117.41;4843017;28;25204;-64
2024/01/24 02:50:39;;;;;;;1.77;1.10;;;11.50;99.90;;;11.65;94.78;101124.22;4847702;28;24531;-64
2024/01/24 02:53:01;;;;;;;3.20;1.10;;;11.50;99.90;;;11.79;93.89;101136.41;4844018;28;24531;-65
2024/01/24 02:55:23;;;;;;;0.90;0.80;;;11.60;99.90;;;11.77;93.86;101138.28;4842241;28;24986;-64
2024/01/24 02:57:45;;;;;;;3.38;1.00;;;11.60;99.90;;;11.72;94.04;101142.97;4818540;28;24540;-63
2024/01/24 03:00:08;;;;;;;2.53;0.97;;;11.60;99.90;;;11.69;94.72;101135.38;4851203;28;24424;-64
2024/01/24 03:02:31;;;;;;;1.70;0.90;;;11.50;99.90;;;11.68;94.19;101131.06;4846060;28;24444;-64
2024/01/24 03:04:53;;;;;;;1.60;0.90;;;11.50;99.90;;;11.68;95.20;101110.16;4853224;28;24519;-64
2024/01/24 03:07:15;;;;;;;1.90;0.80;;;11.50;99.90;;;11.67;94.56;101106.69;4846112;28;24486;-64
2024/01/24 03:09:37;;;;;;;3.47;1.02;;;11.50;99.90;;;11.68;95.05;101103.16;4855329;28;24438;-63
2024/01/24 03:11:59;;;;;;;2.25;0.90;;;11.50;99.90;;;11.73;94.97;101109.84;4852918;28;24996;-64
2024/01/24 03:14:24;;;;;;;1.92;0.90;;;11.50;99.90;;;11.76;94.64;101105.22;4853115;28;25001;-63
2024/01/24 03:16:46;;;;;;;1.90;0.70;;;11.60;99.90;;;11.76;94.82;101115.69;4844157;28;24436;-63
2024/01/24 03:19:08;;;;;;;0.95;0.70;;;11.60;99.90;;;11.80;95.29;101111.91;4826386;28;24444;-64
2024/01/24 03:21:30;;;;;;;4.40;0.90;;;11.60;99.90;;;11.86;94.99;101105.44;4839697;28;24455;-64
2024/01/24 03:23:52;;;;;;;1.30;0.70;;;11.70;99.90;;;11.92;94.34;101090.16;4840894;28;24511;-64
2024/01/24 03:26:15;;;;;;;1.00;0.70;;;11.70;99.90;;;11.95;94.49;101100.38;4835192;28;24509;-64
2024/01/24 03:28:37;;;;;;;1.50;0.90;;;11.80;99.90;;;12.01;93.99;101083.44;4845056;28;24524;-64
2024/01/24 03:31:00;;;;;;;1.67;0.80;;;11.80;99.90;;;12.01;93.76;101078.22;4850887;28;24486;-64
2024/01/24 03:33:22;;;;;;;0.80;0.80;;;11.90;99.90;;;12.05;93.90;101088.31;4833027;28;24453;-65
2024/01/24 03:35:44;;;;;;;1.50;0.70;;;11.90;99.90;;;12.03;94.20;101108.50;4853834;28;24519;-65
2024/01/24 03:38:06;;;;;;;1.38;0.95;;;11.90;99.90;;;12.06;94.99;101091.78;4851249;28;24538;-65
2024/01/24 03:40:28;;;;;;;1.25;0.70;;;11.90;99.90;;;12.09;94.88;101092.41;4851155;28;24468;-63
2024/01/24 03:42:50;;;;;;;2.30;0.80;;;11.90;99.90;;;12.11;94.66;101093.13;4852008;28;24623;-64
2024/01/24 03:45:12;;;;;;;0.75;0.75;;;11.90;99.90;;;12.06;94.98;101124.00;4849714;28;25039;-62
2024/01/24 03:47:34;;;;;;;1.10;0.80;;;11.90;99.90;;;12.08;95.17;101121.28;4851822;28;24463;-64
2024/01/24 03:49:57;;;;;;;1.30;0.80;;;11.90;99.90;;;12.08;95.45;101153.50;4845226;28;24432;-64
2024/01/24 03:52:19;;;;;;;1.20;0.63;;;11.90;99.90;;;12.12;95.73;101131.41;4853053;28;25064;-63
2024/01/24 03:54:41;;;;;;;1.90;0.95;;;11.90;99.90;;;12.16;95.25;101145.13;4842641;28;25053;-64
2024/01/24 03:57:03;;;;;;;0.93;0.80;;;12.00;99.90;;;12.16;94.84;101127.63;4846344;28;24446;-66
2024/01/24 03:59:25;;;;;;;0.90;0.60;;;12.00;99.90;;;12.13;95.07;101145.34;4849930;28;24964;-65
2024/01/24 04:01:47;;;;;;;1.27;0.80;;;11.90;99.90;;;12.11;95.38;101153.31;4837922;28;25042;-65
2024/01/24 04:04:09;;;;;;;1.35;0.70;;;11.90;99.90;;;12.15;95.13;101120.75;4855144;28;24447;-64
2024/01/24 04:06:31;;;;;;;0.60;0.60;;;12.00;99.90;;;12.18;95.12;101128.38;4858066;28;24478;-62
2024/01/24 04:08:53;;;;;;;0.90;0.80;;;12.00;99.90;;;12.19;95.83;101114.34;4857202;28;25015;-62
2024/01/24 04:11:15;;;;;;;0.70;0.60;;;12.00;99.90;;;12.18;95.42;101099.59;4855461;28;24860;-65
2024/01/24 04:13:37;;;;;;;0.85;0.70;;;12.00;99.90;;;12.20;96.06;101102.13;4856011;28;24519;-66
2024/01/24 04:16:00;;;;;;;0.90;0.70;;;12.10;99.90;;;12.22;95.63;101093.19;4855519;28;24912;-63
2024/01/24 04:18:22;;;;;;;2.20;0.60;;;12.10;99.90;;;12.22;95.87;101101.03;4841386;28;24470;-62
2024/01/24 04:20:44;;;;;;;0.60;0.60;;;12.00;99.90;;;12.22;96.48;101095.00;4852447;28;25279;-65
2024/01/24 04:23:06;;;;;;;0.60;0.52;;;12.00;99.90;;;12.23;96.76;101075.72;4853224;28;24447;-61
2024/01/24 04:25:28;;;;;;;1.40;0.60;;;12.10;99.90;;;12.26;96.40;101072.88;4850449;28;24478;-62
2024/01/24 04:27:50;;;;;;;1.40;0.60;;;12.10;99.90;;;12.32;96.46;101061.97;4850703;28;24856;-64
2024/01/24 04:30:12;;;;;;;0.60;0.60;;;12.10;99.90;;;12.37;95.84;101065.09;4849131;28;24845;-64
2024/01/24 04:32:35;;;;;;;0.87;0.83;;;12.20;99.90;;;12.35;96.55;101040.84;4837210;28;24535;-65
2024/01/24 04:34:57;;;;;;;0.70;0.70;;;12.20;99.90;;;12.36;96.36;101058.19;4851667;28;24522;-63
2024/01/24 04:37:19;;;;;;;1.88;0.80;;;12.20;99.90;;;12.31;96.32;101034.13;4849331;28;24454;-64
2024/01/24 04:39:41;;;;;;;1.40;0.80;;;12.20;99.90;;;12.29;97.25;101052.56;4848294;28;24428;-64
2024/01/24 04:42:04;;;;;;;0.70;0.70;;;12.10;99.90;;;12.33;96.69;101035.69;4847875;28;24428;-64
2024/01/24 04:44:37;;;;;;;1.45;0.70;;;12.20;99.90;;;12.32;96.87;101038.44;4845804;28;24444;-64
2024/01/24 04:47:01;;;;;;;0.80;0.73;;;12.20;99.90;;;12.34;96.48;101050.47;4852202;28;25072;-65
2024/01/24 04:49:22;;;;;;;1.13;0.73;;;12.20;99.90;;;12.35;96.95;101054.72;4846539;28;24435;-64
2024/01/24 04:52:02;;;;;;;0.70;0.70;;;12.20;99.90;;;12.39;97.28;101064.03;4838833;28;25029;-65
2024/01/24 04:54:24;;;;;;;2.60;0.70;;;12.20;99.90;;;12.43;96.68;101056.81;4853244;28;24479;-64
2024/01/24 04:56:46;;;;;;;1.60;0.77;;;12.20;99.90;;;12.43;97.39;101070.75;4842091;28;25009;-64
2024/01/24 04:59:08;;;;;;;0.77;0.60;;;12.30;99.90;;;12.46;97.24;101070.50;4848780;28;24451;-64
2024/01/24 05:01:30;;;;;;;0.80;0.73;;;12.30;99.90;;;12.50;96.58;101086.00;4849700;28;24974;-64
2024/01/24 05:03:52;;;;;;;0.60;0.60;;;12.30;99.90;;;12.46;97.58;101083.59;4853532;28;24450;-64
2024/01/24 05:06:14;;;;;;;0.70;0.70;;;12.30;99.90;;;12.44;97.06;101098.56;4855957;28;24519;-64
2024/01/24 05:08:36;;;;;;;2.22;0.70;;;12.30;99.90;;;12.48;97.07;101083.47;4854662;28;24517;-62
2024/01/24 05:10:58;;;;;;;1.27;0.80;;;12.30;99.90;;;12.44;96.97;101067.16;4828107;28;24440;-64
2024/01/24 05:13:20;;;;;;;1.20;0.88;;;12.30;99.90;;;12.47;97.55;101079.19;4837229;28;24527;-65
2024/01/24 05:15:42;;;;;;;0.60;0.60;;;12.30;99.90;;;12.53;97.23;101070.03;4845270;28;24546;-64
2024/01/24 05:18:04;;;;;;;0.70;0.70;;;12.40;99.90;;;12.54;96.77;101076.97;4854093;28;24458;-63
2024/01/24 05:20:26;;;;;;;1.08;0.70;;;12.40;99.90;;;12.54;97.21;101066.50;4849529;28;24428;-64
2024/01/24 05:22:48;;;;;;;0.60;0.60;;;12.40;99.90;;;12.55;96.82;101069.00;4848171;28;24573;-64
2024/01/24 05:25:11;;;;;;;1.40;0.60;;;12.40;99.90;;;12.60;96.61;101061.66;4843313;28;24432;-64
2024/01/24 05:27:33;;;;;;;0.60;0.60;;;12.40;99.90;;;12.63;96.61;101076.31;4848124;28;24428;-64
2024/01/24 05:29:55;;;;;;;0.77;0.50;;;12.50;99.90;;;12.75;96.49;101054.44;4842780;28;24475;-64
2024/01/24 05:32:17;;;;;;;1.38;0.60;;;12.50;99.90;;;12.78;95.74;101073.38;4849366;28;24498;-64
2024/01/24 05:34:39;;;;;;;0.88;0.60;;;12.60;99.90;;;12.77;96.18;101058.63;4842498;28;24542;-64
2024/01/24 05:37:01;;;;;;;0.80;0.60;;;12.60;99.90;;;12.71;96.79;101047.75;4844428;28;24442;-65
2024/01/24 05:39:23;;;;;;;0.50;0.50;;;12.50;99.90;;;12.74;96.98;101056.22;4850631;28;24452;-66
2024/01/24 05:41:45;;;;;;;0.50;0.50;;;12.60;99.90;;;12.81;96.76;101061.84;4831651;28;24459;-65
2024/01/24 05:44:07;;;;;;;0.50;0.50;;;12.60;99.90;;;12.80;96.86;101054.94;4836948;28;24481;-65
2024/01/24 05:46:30;;;;;;;0.40;0.40;;;12.60;99.90;;;12.84;97.20;101054.56;4831439;28;24449;-66
2024/01/24 05:48:55;;;;;;;1.10;0.47;;;12.60;99.90;;;12.86;97.35;101072.81;4844180;28;24476;-64
2024/01/24 05:51:18;;;;;;;0.40;0.40;;;12.60;99.90;;;12.95;96.97;101062.47;4832125;28;24519;-64
2024/01/24 05:53:44;;;;;;;0.50;0.50;;;12.70;99.90;;;12.97;96.97;101064.97;4840377;28;24453;-65
2024/01/24 05:56:06;;;;;;;0.40;0.40;;;12.80;99.90;;;13.09;97.03;101061.47;4849074;28;24436;-65
2024/01/24 05:58:28;;;;;;;0.40;0.40;;;12.80;99.90;;;13.08;95.79;101051.94;4821577;28;24452;-64
2024/01/24 06:00:50;;;;;;;0.40;0.40;;;12.90;99.90;;;13.10;96.14;101066.59;4846206;28;24856;-63
2024/01/24 06:03:12;;;;;;;0.40;0.40;;;12.90;99.90;;;13.06;96.27;101064.31;4823037;28;24814;-63
2024/01/24 06:05:34;;;;;;;0.47;0.40;;;12.90;99.90;;;13.06;96.22;101066.94;4842239;28;24427;-62
2024/01/24 06:07:56;;;;;;;0.52;0.50;;;12.80;99.90;;;13.02;96.52;101063.69;4846968;28;24455;-64
2024/01/24 06:10:18;;;;;;;0.40;0.40;;;12.90;99.90;;;12.97;97.01;101068.44;4838033;28;24490;-64
2024/01/24 06:12:40;;;;;;;0.40;0.40;;;12.80;99.90;;;13.04;97.16;101040.88;4850961;28;24432;-64
2024/01/24 06:15:03;;;;;;;0.55;0.40;;;12.90;99.90;;;13.11;96.53;101036.84;4839405;28;24432;-63
2024/01/24 06:17:25;;;;;;;0.50;0.50;;;12.90;99.90;;;13.08;96.37;101023.97;4846612;28;25027;-64
2024/01/24 06:19:46;;;;;;;0.40;0.40;;;12.90;99.90;;;13.14;95.87;101044.44;4843763;28;25231;-65
2024/01/24 06:22:09;;;;;;;0.70;0.40;;;13.00;99.90;;;13.12;96.05;101040.28;4844947;28;24431;-64
2024/01/24 06:24:31;;;;;;;0.50;0.50;;;13.00;99.90;;;13.12;96.10;101058.59;4837640;28;25033;-62
2024/01/24 06:26:53;;;;;;;0.50;0.50;;;12.90;99.90;;;13.08;96.36;101052.78;4854733;28;24798;-65
2024/01/24 06:29:15;;;;;;;0.60;0.50;;;12.90;99.90;;;13.02;97.14;101081.19;4853312;28;24483;-62
2024/01/24 06:31:57;;;;;;;0.45;0.45;;;12.80;99.90;;;13.03;98.05;101088.09;4855178;28;25052;-65
2024/01/24 06:34:19;;;;;;;1.20;0.80;;;12.90;99.90;;;12.97;98.11;101092.00;4850261;28;24471;-64
2024/01/24 06:36:41;;;;;;;0.80;0.50;;;12.80;99.90;;;12.89;98.56;101080.44;4839802;28;24444;-64
2024/01/24 06:39:03;;;;;;;0.60;0.60;;;12.80;99.90;;;12.91;99.32;101070.66;4839899;28;24464;-64
2024/01/24 06:41:25;;;;;;;1.23;0.40;;;12.70;99.90;;;12.95;99.20;101064.25;4854066;28;24829;-64
2024/01/24 06:43:47;;;;;;;0.43;0.43;;;12.70;99.90;;;13.01;98.71;101063.81;4851712;28;24539;-64
2024/01/24 06:46:09;;;;;;;0.50;0.50;;;12.80;99.90;;;12.95;99.40;101064.25;4848961;28;24466;-64
2024/01/24 06:48:31;;;;;;;0.80;0.50;;;12.80;99.90;;;12.94;99.86;101054.75;4840009;28;24535;-64
2024/01/24 06:50:54;;;;;;;0.43;0.43;;;12.70;99.90;;;12.94;100.00;101054.75;4840955;28;24557;-64
2024/01/24 06:53:16;;;;;;;0.50;0.50;;;12.80;99.90;;;12.90;100.00;101064.63;4842317;28;24501;-63
2024/01/24 06:55:38;;;;;;;1.20;0.60;;;12.70;99.90;;;12.86;100.00;101057.91;4847987;28;24989;-63
2024/01/24 06:58:00;;;;;;;0.70;0.50;;;12.70;99.90;;;12.82;100.00;101069.56;4853159;28;24455;-64
2024/01/24 07:00:23;;;;;;;0.40;0.40;;;12.60;99.90;;;12.86;100.00;101062.34;4845214;28;24447;-64
2024/01/24 07:02:45;;;;;;;0.40;0.40;;;12.70;99.90;;;12.86;100.00;101073.63;4847017;28;24479;-63
2024/01/24 07:05:07;;;;;;;0.60;0.40;;;12.70;99.90;;;12.87;100.00;101070.06;4854240;28;24430;-64
2024/01/24 07:07:30;;;;;;;0.45;0.45;;;12.70;99.90;;;12.93;100.00;101074.00;4851527;28;24444;-64
2024/01/24 07:09:51;;;;;;;0.50;0.40;;;12.70;99.90;;;12.92;100.00;101061.88;4853347;28;24487;-65
2024/01/24 07:12:15;;;;;;;0.40;0.40;;;12.70;99.90;;;12.88;100.00;101078.78;4848867;28;24482;-63
2024/01/24 07:14:36;;;;;;;0.60;0.50;;;12.70;99.90;;;12.91;100.00;101075.91;4838362;28;24464;-64
2024/01/24 07:16:58;;;;;;;0.40;0.40;;;12.70;99.90;;;12.90;100.00;101097.81;4841894;28;24929;-63
2024/01/24 07:19:20;;;;;;;0.40;0.40;;;12.70;99.90;;;12.93;100.00;101098.41;4838502;28;24547;-63
2024/01/24 07:21:42;;;;;;;0.40;0.40;;;12.70;99.90;;;13.02;100.00;101104.75;4844776;28;24844;-63
2024/01/24 07:24:05;;;;;;;0.45;0.45;;;12.80;99.90;;;13.14;99.57;101115.19;4845963;28;24970;-62
2024/01/24 07:26:28;;;;;;;0.73;0.50;;;12.90;99.90;;;13.11;99.70;101119.84;4848877;28;24444;-63
2024/01/24 07:28:50;;;;;;;1.30;0.50;;;12.90;99.90;;;13.01;100.00;101109.16;4842215;28;24432;-64
2024/01/24 07:31:12;;;;;;;0.60;0.60;;;12.90;99.90;;;12.91;100.00;101125.66;4845722;28;24432;-64
2024/01/24 07:33:34;;;;;;;0.77;0.50;;;12.70;99.90;;;12.88;100.00;101118.91;4842337;28;24996;-64
2024/01/24 07:35:56;;;;;;;0.60;0.40;;;12.70;99.90;;;12.89;100.00;101125.78;4851976;28;24506;-64
2024/01/24 07:38:18;;;;;;;0.50;0.50;;;12.70;99.90;;;12.90;100.00;101122.25;4845710;28;24590;-64
2024/01/24 07:40:40;;;;;;;0.50;0.40;;;12.70;99.90;;;12.97;100.00;101122.59;4847700;28;24474;-63
2024/01/24 07:43:02;;;;;;;0.40;0.40;;;12.70;99.90;;;13.05;100.00;101133.41;4843009;28;24447;-62
2024/01/24 07:45:25;;;;;;;0.40;0.40;;;12.80;99.90;;;13.13;99.95;101123.19;4847294;28;24960;-63
2024/01/24 07:47:47;;;;;;;0.40;0.40;;;12.90;99.90;;;13.15;100.00;101142.22;4838304;28;24440;-65
2024/01/24 07:50:11;;;;;;;0.47;0.47;;;12.90;99.90;;;13.16;100.00;101138.69;4838603;28;24799;-64
2024/01/24 07:52:33;;;;;;;0.40;0.40;;;12.90;99.90;;;13.24;100.00;101165.94;4848075;28;24475;-64
2024/01/24 07:55:03;;;;;;;0.50;0.50;;;13.00;99.90;;;13.32;100.00;101144.44;4823632;28;24432;-64
2024/01/24 07:57:26;;;;;;;0.40;0.40;;;13.10;99.90;;;13.33;100.00;101153.94;4847063;28;24486;-63
2024/01/24 07:59:47;;;;;;;0.70;0.47;;;13.10;99.90;;;13.29;100.00;101157.75;4850866;28;25053;-65
2024/01/24 08:02:13;;;;;;;0.47;0.47;;;13.10;99.90;;;13.34;100.00;101152.16;4848177;28;24443;-63
2024/01/24 08:04:35;;;;;;;0.50;0.50;;;13.10;99.90;;;13.32;100.00;101170.63;4852137;28;24431;-63
2024/01/24 08:06:57;;;;;;;0.43;0.43;;;13.10;99.90;;;13.32;100.00;101160.16;4822217;28;24428;-63
2024/01/24 08:09:19;;;;;;;0.75;0.40;;;13.10;99.90;;;13.33;100.00;101161.81;4839789;28;24479;-64
2024/01/24 08:11:41;;;;;;;0.40;0.40;;;13.10;99.90;;;13.31;100.00;101165.53;4827327;28;24543;-64
2024/01/24 08:14:03;;;;;;;0.40;0.40;;;13.10;99.90;;;13.27;100.00;101157.03;4844335;28;24451;-64
2024/01/24 08:16:25;;;;;;;0.40;0.40;;;13.00;99.90;;;13.31;100.00;101161.09;4854500;28;24481;-64
2024/01/24 08:18:48;;;;;;;0.60;0.50;;;13.10;99.90;;;13.32;100.00;101149.66;4845594;28;24907;-64
2024/01/24 08:21:12;;;;;;;0.40;0.40;;;13.10;99.90;;;13.33;100.00;101159.19;4849065;28;24486;-61
2024/01/24 08:23:34;;;;;;;0.40;0.40;;;13.10;99.90;;;13.33;100.00;101164.44;4843234;28;24527;-62
2024/01/24 08:26:10;;;;;;;0.80;0.40;;;13.10;99.90;;;13.35;100.00;101164.34;4850172;28;24516;-65
2024/01/24 08:28:31;;;;;;;0.40;0.40;;;13.10;99.90;;;13.36;100.00;101169.47;4854597;28;24519;-65
2024/01/24 08:30:54;;;;;;;0.40;0.40;;;13.10;99.90;;;13.43;100.00;101183.78;4847726;28;24895;-65
2024/01/24 08:33:16;;;;;;;0.45;0.45;;;13.20;99.90;;;13.49;100.00;101192.97;4833124;28;24429;-63
2024/01/24 08:35:38;;;;;;;0.40;0.40;;;13.20;99.90;;;13.52;100.00;101187.50;4848453;28;25135;-67
2024/01/24 08:38:00;;;;;;;0.50;0.47;;;13.30;99.90;;;13.59;100.00;101193.94;4848893;28;25108;-66
2024/01/24 08:40:22;;;;;;;0.43;0.43;;;13.30;99.90;;;13.68;100.00;101201.94;4848927;28;24768;-64
2024/01/24 08:42:44;;;;;;;1.40;0.50;;;13.40;99.90;;;13.85;99.59;101213.78;4852124;28;24502;-65
2024/01/24 08:45:06;;;;;;;0.40;0.35;;;13.50;99.90;;;13.98;98.01;101199.63;4849400;28;25168;-64
2024/01/24 08:47:28;;;;;;;0.40;0.32;;;13.70;99.90;;;14.09;96.41;101218.94;4844772;28;24449;-65
2024/01/24 08:49:52;;;;;;;0.43;0.43;;;13.80;99.90;;;14.30;95.18;101205.00;4827258;28;24506;-66
2024/01/24 08:52:15;;;;;;;1.10;0.50;;;14.00;99.90;;;14.53;94.36;101206.66;4848822;28;25028;-63
2024/01/24 08:54:37;;;;;;;0.40;0.40;;;14.10;99.90;;;14.80;91.62;101203.59;4840976;28;24571;-64
2024/01/24 08:57:00;;;;;;;0.40;0.40;;;14.40;99.90;;;15.60;89.00;101217.19;4854495;28;24447;-66
2024/01/24 08:59:22;;;;;;;0.50;0.43;;;14.90;99.90;;;16.46;82.72;101213.19;4855997;28;24521;-64
2024/01/24 09:01:45;;;;;;;0.43;0.43;;;15.60;99.90;;;17.44;76.47;101225.41;4854026;28;25009;-66
2024/01/24 09:04:08;;;;;;;0.50;0.50;;;16.50;99.90;;;17.93;73.05;101216.47;4847154;28;24532;-65
2024/01/24 09:06:30;;;;;;;1.40;0.60;;;17.10;99.90;;;17.90;72.46;101215.94;4830114;28;24432;-62
2024/01/24 09:08:52;;;;;;;0.50;0.50;;;17.30;99.90;;;17.58;73.34;101218.91;4840976;28;24919;-65
2024/01/24 09:11:15;;;;;;;1.10;0.50;;;17.10;99.90;;;17.21;74.24;101233.75;4844319;28;25043;-69
2024/01/24 09:13:37;;;;;;;0.90;0.80;;;16.90;99.90;;;16.98;75.33;101220.84;4843733;28;24517;-64
2024/01/24 09:15:59;;;;;;;0.50;0.50;;;16.70;99.90;;;16.76;76.47;101217.63;4852824;28;24451;-65
2024/01/24 09:18:21;;;;;;;0.50;0.50;;;16.50;99.90;;;16.64;76.45;101227.41;4847940;28;24456;-66
2024/01/24 09:20:44;;;;;;;0.90;0.60;;;16.30;99.90;;;16.61;77.07;101242.69;4844974;28;24503;-65
2024/01/24 09:23:05;;;;;;;0.50;0.40;;;16.20;99.90;;;17.27;74.46;101251.69;4847117;28;24539;-65
2024/01/24 09:25:27;;;;;;;0.50;0.40;;;16.50;99.90;;;17.82;72.33;101230.66;4848171;28;24518;-65
2024/01/24 09:27:50;;;;;;;0.60;0.60;;;17.00;99.90;;;17.76;71.10;101227.75;4848127;28;24527;-65
2024/01/24 09:30:13;;;;;;;0.50;0.50;;;17.10;99.90;;;17.45;71.27;101250.84;4852500;28;25047;-65
2024/01/24 09:32:35;;;;;;;0.43;0.40;;;17.00;99.90;;;17.25;72.02;101245.72;4855856;28;24869;-65
2024/01/24 09:34:57;;;;;;;0.50;0.50;;;16.90;99.90;;;17.18;71.88;101231.41;4851684;28;25356;-65
2024/01/24 09:37:20;;;;;;;1.40;0.50;;;16.70;99.90;;;17.09;72.39;101243.59;4854449;28;24462;-64
2024/01/24 09:39:42;;;;;;;0.40;0.40;;;16.70;99.90;;;16.93;71.68;101225.66;4832069;28;25075;-63
2024/01/24 09:42:17;;;;;;;0.63;0.50;;;16.60;99.90;;;16.76;72.03;101236.06;4849566;28;24444;-66
2024/01/24 09:44:39;;;;;;;0.60;0.40;;;16.40;99.90;;;16.54;72.35;101244.16;4820747;28;24526;-64
2024/01/24 09:47:02;;;;;;;1.73;0.50;;;16.20;99.90;;;16.39;72.18;101243.66;4843957;28;24483;-66
2024/01/24 09:49:24;;;;;;;0.50;0.50;;;16.10;99.90;;;16.06;72.63;101257.91;4851062;28;24488;-64
2024/01/24 09:51:49;;;;;;;1.40;0.60;;;15.90;99.90;;;15.85;73.68;101258.88;4850642;28;24447;-65